Time;durP1;ratioP1;P1;durP2;ratioP2;P2;SDS_P1;SDS_P2;PMS_P1;PMS_P2;Temp;Humidity;BMP_temperature;BMP_pressure;BME280_temperature;BME280_humidity;BME280_pressure;Samples;Min_cycle;Max_cycle;Signal;HPM_P1;HPM_P2
2021/01/09 00:00:34;;;;;;;3.85;2.33;;;9.30;99.90;;;;;;4954173;29;20195;-29
2021/01/09 00:03:04;;;;;;;3.90;2.35;;;9.30;99.90;;;;;;4955009;29;20206;-32
2021/01/09 00:05:38;;;;;;;6.22;2.42;;;9.30;99.90;;;;;;4954614;29;20273;-28
2021/01/09 00:08:08;;;;;;;2.70;2.25;;;9.20;99.90;;;;;;4954267;29;20209;-27
2021/01/09 00:10:38;;;;;;;4.85;2.45;;;9.10;99.90;;;;;;4954237;29;20197;-28
2021/01/09 00:13:09;;;;;;;6.13;2.83;;;9.00;99.90;;;;;;4952842;29;20308;-29
2021/01/09 00:15:40;;;;;;;8.68;3.03;;;9.00;99.90;;;;;;4953677;29;20245;-28
2021/01/09 00:18:10;;;;;;;10.23;3.80;;;8.90;99.90;;;;;;4954231;29;20229;-31
2021/01/09 00:20:41;;;;;;;6.28;3.08;;;8.80;99.90;;;;;;4954599;29;20217;-31
2021/01/09 00:23:11;;;;;;;9.80;3.60;;;8.80;99.90;;;;;;4954660;29;20709;-31
2021/01/09 00:25:41;;;;;;;6.07;2.58;;;8.80;99.90;;;;;;4954290;29;20197;-29
2021/01/09 00:28:12;;;;;;;4.22;3.33;;;8.80;99.90;;;;;;4953900;29;20206;-31
2021/01/09 00:30:42;;;;;;;5.82;3.15;;;8.70;99.90;;;;;;4954044;29;20562;-28
2021/01/09 00:33:13;;;;;;;8.57;3.58;;;8.70;99.90;;;;;;4954003;29;20216;-30
2021/01/09 00:35:43;;;;;;;8.60;3.47;;;8.70;99.90;;;;;;4954210;29;20206;-34
2021/01/09 00:38:13;;;;;;;7.97;4.00;;;8.70;99.90;;;;;;4953347;29;20697;-32
2021/01/09 00:40:43;;;;;;;8.20;3.78;;;8.70;99.90;;;;;;4949315;29;20236;-32
2021/01/09 00:43:14;;;;;;;78.88;16.38;;;8.70;99.90;;;;;;4953644;29;20681;-27
2021/01/09 00:45:44;;;;;;;7.55;3.33;;;8.60;99.90;;;;;;4952894;29;20261;-30
2021/01/09 00:48:15;;;;;;;9.65;4.15;;;8.50;99.90;;;;;;4953363;29;20550;-31
2021/01/09 00:50:45;;;;;;;10.95;3.90;;;8.30;99.90;;;;;;4952728;28;20570;-30
2021/01/09 00:53:15;;;;;;;5.68;3.80;;;8.20;99.90;;;;;;4953414;29;20241;-29
2021/01/09 00:55:46;;;;;;;5.22;3.40;;;8.10;99.90;;;;;;4953968;29;20244;-26
2021/01/09 00:58:17;;;;;;;9.48;4.38;;;8.00;99.90;;;;;;4952896;29;20220;-27
2021/01/09 01:00:47;;;;;;;6.47;4.18;;;8.00;99.90;;;;;;4951414;29;20666;-30
2021/01/09 01:03:18;;;;;;;7.90;4.25;;;7.90;99.90;;;;;;4953550;29;20197;-28
2021/01/09 01:05:48;;;;;;;10.30;4.75;;;7.80;99.90;;;;;;4953302;29;20201;-27
2021/01/09 01:08:20;;;;;;;11.23;4.75;;;7.70;99.90;;;;;;4953347;29;20213;-27
2021/01/09 01:10:50;;;;;;;11.23;5.22;;;7.60;99.90;;;;;;4953583;29;20194;-28
2021/01/09 01:13:22;;;;;;;6.65;5.13;;;7.50;99.90;;;;;;4953508;29;20205;-27
2021/01/09 01:15:52;;;;;;;10.25;6.90;;;7.50;99.90;;;;;;4952963;29;20667;-30
2021/01/09 01:18:23;;;;;;;12.60;6.70;;;7.40;99.90;;;;;;4952930;29;20323;-29
2021/01/09 01:20:53;;;;;;;11.05;7.22;;;7.40;99.90;;;;;;4953606;29;20270;-27
2021/01/09 01:23:23;;;;;;;14.25;7.70;;;7.30;99.90;;;;;;4943212;29;20194;-29
2021/01/09 01:25:53;;;;;;;11.90;7.15;;;7.40;99.90;;;;;;4952105;29;20205;-28
2021/01/09 01:28:24;;;;;;;684.92;105.35;;;7.40;99.90;;;;;;4943774;29;20194;-28
2021/01/09 01:30:55;;;;;;;33.95;11.02;;;7.50;99.90;;;;;;4952218;29;20253;-30
2021/01/09 01:33:25;;;;;;;11.30;6.30;;;7.40;99.90;;;;;;4946576;29;20240;-28
2021/01/09 01:35:55;;;;;;;11.55;7.60;;;7.30;99.90;;;;;;4952241;29;20230;-26
2021/01/09 01:38:25;;;;;;;9.13;7.47;;;7.30;99.90;;;;;;4952062;29;20233;-31
2021/01/09 01:41:02;;;;;;;9.13;6.70;;;7.20;99.90;;;;;;4951534;29;20229;-27
2021/01/09 01:43:33;;;;;;;12.55;7.28;;;7.10;99.90;;;;;;4952748;29;20633;-30
2021/01/09 01:46:05;;;;;;;10.10;7.28;;;7.00;99.90;;;;;;4947696;29;20612;-29
2021/01/09 01:48:36;;;;;;;11.50;7.80;;;7.00;99.90;;;;;;4952775;29;20583;-31
2021/01/09 01:51:09;;;;;;;11.57;7.95;;;6.90;99.90;;;;;;4952567;29;20229;-29
2021/01/09 01:53:39;;;;;;;8.95;6.95;;;6.90;99.90;;;;;;4951851;29;20700;-26
2021/01/09 01:56:09;;;;;;;8.48;7.20;;;6.80;99.90;;;;;;4952431;29;20924;-30
2021/01/09 01:58:42;;;;;;;11.82;7.40;;;6.80;99.90;;;;;;4952602;29;20265;-29
2021/01/09 02:01:15;;;;;;;12.38;7.70;;;6.80;99.90;;;;;;4951623;29;20194;-28
2021/01/09 02:03:46;;;;;;;13.13;7.13;;;6.70;99.90;;;;;;4952088;28;20209;-29
2021/01/09 02:06:20;;;;;;;18.90;13.80;;;6.70;99.90;;;;;;4952156;29;20201;-27
2021/01/09 02:08:58;;;;;;;11.15;9.48;;;6.60;99.90;;;;;;4944596;29;20331;-27
2021/01/09 02:11:37;;;;;;;1999.90;558.05;;;6.60;99.90;;;;;;4951135;29;20194;-29
2021/01/09 02:14:16;;;;;;;35.25;27.85;;;6.60;99.90;;;;;;4948211;29;20236;-27
2021/01/09 02:16:46;;;;;;;1999.90;452.75;;;6.60;99.90;;;;;;4952278;29;20244;-27
2021/01/09 02:19:20;;;;;;;26.52;23.83;;;6.60;99.90;;;;;;4951887;29;20240;-30
2021/01/09 02:21:52;;;;;;;24.80;22.10;;;6.70;99.90;;;;;;4951708;29;20276;-28
2021/01/09 02:24:23;;;;;;;22.40;17.67;;;6.60;99.90;;;;;;4951440;29;20201;-31
2021/01/09 02:26:53;;;;;;;30.45;27.42;;;6.60;99.90;;;;;;4951809;29;20264;-31
2021/01/09 02:29:25;;;;;;;20.70;18.55;;;6.60;99.90;;;;;;4950051;29;20198;-29
2021/01/09 02:31:58;;;;;;;19.70;17.45;;;6.50;99.90;;;;;;4947232;29;20205;-28
2021/01/09 02:34:34;;;;;;;20.02;17.20;;;6.30;99.90;;;;;;4951619;29;20204;-31
2021/01/09 02:37:06;;;;;;;19.45;16.83;;;6.30;99.90;;;;;;4939650;29;20193;-30
2021/01/09 02:39:37;;;;;;;21.38;17.02;;;6.30;99.90;;;;;;4948511;29;20267;-29
2021/01/09 02:42:08;;;;;;;20.83;17.95;;;6.30;99.90;;;;;;4949214;29;20201;-30
2021/01/09 02:44:39;;;;;;;23.15;20.02;;;6.30;99.90;;;;;;4950823;29;20285;-28
2021/01/09 02:47:09;;;;;;;29.08;23.50;;;6.20;99.90;;;;;;4950448;29;20224;-26
2021/01/09 02:49:41;;;;;;;29.98;25.95;;;6.20;99.90;;;;;;4948752;29;20301;-27
2021/01/09 02:52:11;;;;;;;29.88;26.27;;;6.10;99.90;;;;;;4948332;29;20610;-31
2021/01/09 02:54:42;;;;;;;32.50;28.98;;;6.10;99.90;;;;;;4940909;29;20233;-27
2021/01/09 02:57:12;;;;;;;724.08;150.68;;;6.10;99.90;;;;;;4951100;29;20561;-28
2021/01/09 02:59:42;;;;;;;1999.90;528.83;;;6.00;99.90;;;;;;4949910;29;20303;-28
2021/01/09 03:02:12;;;;;;;172.80;55.38;;;6.10;99.90;;;;;;4946139;29;20209;-33
2021/01/09 03:04:42;;;;;;;35.55;31.92;;;6.10;99.90;;;;;;4951184;29;20201;-27
2021/01/09 03:07:13;;;;;;;33.67;30.02;;;6.00;99.90;;;;;;4950180;29;20205;-26
2021/01/09 03:09:44;;;;;;;35.25;31.20;;;5.90;99.90;;;;;;4950315;29;20671;-31
2021/01/09 03:12:14;;;;;;;34.63;30.27;;;5.80;99.90;;;;;;4949514;29;20276;-31
2021/01/09 03:14:44;;;;;;;34.15;30.65;;;5.80;99.90;;;;;;4949003;28;20201;-31
2021/01/09 03:17:14;;;;;;;37.63;31.48;;;5.70;99.90;;;;;;4951012;29;20197;-28
2021/01/09 03:19:44;;;;;;;35.25;31.48;;;5.70;99.90;;;;;;4951433;29;20593;-28
2021/01/09 03:22:15;;;;;;;36.72;32.35;;;5.70;99.90;;;;;;4951557;29;20260;-27
2021/01/09 03:24:46;;;;;;;37.97;33.97;;;5.60;99.90;;;;;;4950771;29;20659;-27
2021/01/09 03:27:16;;;;;;;37.28;33.33;;;5.60;99.90;;;;;;4950464;29;20189;-31
2021/01/09 03:29:46;;;;;;;35.33;31.63;;;5.60;99.90;;;;;;4947660;29;20236;-27
2021/01/09 03:32:16;;;;;;;36.97;32.28;;;5.50;99.90;;;;;;4951098;29;20208;-29
2021/01/09 03:34:46;;;;;;;1999.90;795.78;;;5.50;99.90;;;;;;4950684;29;20197;-28
2021/01/09 03:37:16;;;;;;;43.65;38.83;;;5.60;99.90;;;;;;4950587;29;20205;-27
2021/01/09 03:39:47;;;;;;;41.35;37.10;;;5.70;99.90;;;;;;4950640;28;20299;-29
2021/01/09 03:42:18;;;;;;;53.13;44.22;;;5.50;99.90;;;;;;4950226;29;20205;-31
2021/01/09 03:44:48;;;;;;;47.60;42.65;;;5.50;99.90;;;;;;4950258;29;20197;-27
2021/01/09 03:47:19;;;;;;;45.03;40.25;;;5.50;99.90;;;;;;4950274;29;20261;-30
2021/01/09 03:49:49;;;;;;;53.72;48.17;;;5.40;99.90;;;;;;4950801;29;20555;-30
2021/01/09 03:52:19;;;;;;;47.58;42.42;;;5.30;99.90;;;;;;4949798;29;20208;-28
2021/01/09 03:54:50;;;;;;;49.47;44.50;;;5.30;99.90;;;;;;4951222;29;20237;-31
2021/01/09 03:57:20;;;;;;;49.88;44.90;;;5.20;99.90;;;;;;4950467;29;20248;-30
2021/01/09 03:59:50;;;;;;;49.55;44.35;;;5.20;99.90;;;;;;4950617;29;20233;-29
2021/01/09 04:02:20;;;;;;;49.58;44.33;;;5.20;99.90;;;;;;4947081;29;20213;-26
2021/01/09 04:04:51;;;;;;;52.05;44.45;;;5.20;99.90;;;;;;4951484;29;20311;-27
2021/01/09 04:07:21;;;;;;;47.83;43.15;;;5.20;99.90;;;;;;4951272;29;20202;-31
2021/01/09 04:09:52;;;;;;;45.28;40.45;;;5.20;99.90;;;;;;4950967;29;20287;-26
2021/01/09 04:12:22;;;;;;;46.63;41.47;;;5.10;99.90;;;;;;4950682;29;20193;-29
2021/01/09 04:14:52;;;;;;;40.47;36.75;;;5.10;99.90;;;;;;4949753;29;20265;-27
2021/01/09 04:17:22;;;;;;;46.28;41.63;;;4.90;99.90;;;;;;4951042;29;20202;-32
2021/01/09 04:19:52;;;;;;;45.53;40.92;;;4.90;99.90;;;;;;4947788;29;20217;-28
2021/01/09 04:22:22;;;;;;;48.10;42.83;;;4.80;99.90;;;;;;4951420;29;20256;-28
2021/01/09 04:24:54;;;;;;;47.15;42.60;;;5.00;99.90;;;;;;4950930;29;20209;-27
2021/01/09 04:27:24;;;;;;;51.72;42.92;;;4.90;99.90;;;;;;4940613;29;20209;-25
2021/01/09 04:29:54;;;;;;;1999.90;839.35;;;4.90;99.90;;;;;;4953636;29;20202;-27
2021/01/09 04:32:24;;;;;;;1999.90;876.38;;;5.00;99.90;;;;;;4953811;29;20205;-27
2021/01/09 04:34:54;;;;;;;1265.03;258.17;;;5.10;99.90;;;;;;4954641;29;20669;-30
2021/01/09 04:37:24;;;;;;;1999.90;999.90;;;5.10;99.90;;;;;;4954708;29;20272;-32
2021/01/09 04:39:55;;;;;;;58.15;51.72;;;5.00;99.90;;;;;;4954376;29;20233;-32
2021/01/09 04:42:25;;;;;;;58.92;52.60;;;5.00;99.90;;;;;;4953303;29;20201;-29
2021/01/09 04:44:55;;;;;;;56.88;49.60;;;4.80;99.90;;;;;;4953972;29;20675;-31
2021/01/09 04:47:27;;;;;;;49.80;44.67;;;4.70;99.90;;;;;;4954559;29;20276;-30
2021/01/09 04:49:57;;;;;;;54.17;47.03;;;4.60;99.90;;;;;;4954075;29;20260;-31
2021/01/09 04:52:27;;;;;;;50.55;45.75;;;4.60;99.90;;;;;;4951752;29;20539;-27
2021/01/09 04:54:59;;;;;;;54.40;48.40;;;4.50;99.90;;;;;;4951908;29;20185;-28
2021/01/09 04:57:32;;;;;;;53.63;47.90;;;4.50;99.90;;;;;;4953623;29;20252;-27
2021/01/09 05:00:06;;;;;;;56.17;48.90;;;4.50;99.90;;;;;;4953478;29;20680;-31
2021/01/09 05:02:38;;;;;;;51.92;46.63;;;4.50;99.90;;;;;;4936927;29;20429;-27
2021/01/09 05:05:09;;;;;;;56.75;50.78;;;4.40;99.90;;;;;;4953616;29;20276;-32
2021/01/09 05:07:39;;;;;;;50.70;45.03;;;4.40;99.90;;;;;;4953711;29;20201;-32
2021/01/09 05:10:12;;;;;;;55.00;49.47;;;4.40;99.90;;;;;;4953665;29;20613;-29
2021/01/09 05:12:43;;;;;;;57.47;51.28;;;4.40;99.90;;;;;;4953411;29;20197;-29
2021/01/09 05:15:13;;;;;;;58.72;52.50;;;4.40;99.90;;;;;;4952335;29;20630;-26
2021/01/09 05:17:43;;;;;;;62.03;55.22;;;4.40;99.90;;;;;;4953470;29;20221;-32
2021/01/09 05:20:14;;;;;;;60.97;54.50;;;4.40;99.90;;;;;;4953324;29;20602;-32
2021/01/09 05:22:44;;;;;;;58.58;52.38;;;4.30;99.90;;;;;;4952987;29;20198;-29
2021/01/09 05:25:17;;;;;;;62.55;56.35;;;4.40;99.90;;;;;;4952944;29;20190;-32
2021/01/09 05:27:48;;;;;;;60.95;54.60;;;4.40;99.90;;;;;;4953099;29;20193;-28
2021/01/09 05:30:19;;;;;;;57.00;51.40;;;4.40;99.90;;;;;;4952681;29;20228;-31
2021/01/09 05:32:50;;;;;;;121.90;108.63;;;4.40;99.90;;;;;;4953480;29;20252;-27
2021/01/09 05:35:21;;;;;;;95.18;84.63;;;4.30;99.90;;;;;;4953261;29;20193;-28
2021/01/09 05:37:51;;;;;;;94.57;84.28;;;4.20;99.90;;;;;;4952545;28;20650;-28
2021/01/09 05:40:22;;;;;;;100.00;89.68;;;4.20;99.90;;;;;;4953330;29;20228;-29
2021/01/09 05:42:52;;;;;;;90.47;81.13;;;4.30;99.90;;;;;;4952993;29;20237;-31
2021/01/09 05:45:26;;;;;;;69.78;60.88;;;4.30;99.90;;;;;;4952408;29;20197;-29
2021/01/09 05:47:56;;;;;;;64.13;57.60;;;4.20;99.90;;;;;;4953138;29;20233;-28
2021/01/09 05:50:27;;;;;;;66.43;59.42;;;4.20;99.90;;;;;;4952802;29;20548;-30
2021/01/09 05:52:57;;;;;;;70.45;60.60;;;4.10;99.90;;;;;;4952324;29;20775;-31
2021/01/09 05:55:41;;;;;;;69.82;60.92;;;4.20;99.90;;;;;;4950669;29;20241;-28
2021/01/09 05:58:13;;;;;;;61.83;55.30;;;4.20;99.90;;;;;;4951977;29;20201;-31
2021/01/09 06:00:46;;;;;;;60.38;54.05;;;4.20;99.90;;;;;;4951695;29;20220;-33
2021/01/09 06:03:24;;;;;;;65.35;58.75;;;4.10;99.90;;;;;;4953085;29;20629;-29
2021/01/09 06:05:56;;;;;;;58.97;53.10;;;4.00;99.90;;;;;;4952375;29;20208;-30
2021/01/09 06:08:29;;;;;;;61.03;54.58;;;3.90;99.90;;;;;;4942993;29;20454;-31
2021/01/09 06:11:08;;;;;;;57.03;50.75;;;4.00;99.90;;;;;;4950661;29;20205;-30
2021/01/09 06:13:42;;;;;;;59.63;53.53;;;3.90;99.90;;;;;;4951017;29;20232;-31
2021/01/09 06:16:13;;;;;;;58.70;52.50;;;3.80;99.90;;;;;;4951261;29;20216;-30
2021/01/09 06:18:44;;;;;;;59.47;51.47;;;3.80;99.90;;;;;;4952026;29;20610;-32
2021/01/09 06:21:15;;;;;;;59.72;53.33;;;3.70;99.90;;;;;;4951981;29;20252;-30
2021/01/09 06:23:46;;;;;;;68.50;60.33;;;3.80;99.90;;;;;;4949809;29;20203;-29
2021/01/09 06:26:18;;;;;;;63.90;57.13;;;3.80;99.90;;;;;;4947908;29;20197;-31
2021/01/09 06:28:51;;;;;;;59.90;53.63;;;3.80;99.90;;;;;;4950910;29;20197;-28
2021/01/09 06:31:22;;;;;;;65.28;58.28;;;3.70;99.90;;;;;;4946589;29;20197;-29
2021/01/09 06:33:54;;;;;;;64.53;56.97;;;3.60;99.90;;;;;;4950730;29;20292;-31
2021/01/09 06:36:25;;;;;;;68.50;57.92;;;3.60;99.90;;;;;;4951538;29;20201;-32
2021/01/09 06:38:57;;;;;;;62.33;55.60;;;3.70;99.90;;;;;;4951344;29;20196;-30
2021/01/09 06:41:33;;;;;;;66.43;59.55;;;3.60;99.90;;;;;;4951367;29;20193;-32
2021/01/09 06:44:07;;;;;;;65.93;58.80;;;3.50;99.90;;;;;;4951577;29;20197;-30
2021/01/09 06:46:41;;;;;;;69.20;60.58;;;3.50;99.90;;;;;;4945216;29;20202;-29
2021/01/09 06:49:19;;;;;;;65.05;57.85;;;3.50;99.90;;;;;;4937779;29;20359;-29
2021/01/09 06:51:55;;;;;;;64.30;57.50;;;3.50;99.90;;;;;;4952253;29;20204;-29
2021/01/09 06:54:29;;;;;;;63.33;55.35;;;3.40;99.90;;;;;;4948334;29;20276;-32
2021/01/09 06:57:14;;;;;;;70.65;57.15;;;3.40;99.90;;;;;;4951443;29;20208;-30
2021/01/09 06:59:45;;;;;;;62.63;55.88;;;3.40;99.90;;;;;;4950405;29;20871;-30
2021/01/09 07:02:23;;;;;;;61.53;55.10;;;3.40;99.90;;;;;;4951452;29;20286;-27
2021/01/09 07:05:00;;;;;;;66.40;59.05;;;3.40;99.90;;;;;;4951317;29;20617;-26
2021/01/09 07:07:38;;;;;;;93.32;71.78;;;3.40;99.90;;;;;;4951110;29;20570;-26
2021/01/09 07:10:23;;;;;;;96.25;83.43;;;3.40;99.90;;;;;;4951056;29;20198;-28
2021/01/09 07:12:59;;;;;;;87.88;76.13;;;3.30;99.90;;;;;;4951507;29;20205;-26
2021/01/09 07:15:33;;;;;;;91.35;77.28;;;3.20;99.90;;;;;;4950526;29;20255;-28
2021/01/09 07:18:06;;;;;;;106.53;86.93;;;3.20;99.90;;;;;;4951703;29;20216;-33
2021/01/09 07:20:38;;;;;;;85.65;72.15;;;3.20;99.90;;;;;;4951360;29;20584;-28
2021/01/09 07:23:10;;;;;;;70.55;59.58;;;3.20;99.90;;;;;;4951400;29;20212;-27
2021/01/09 07:25:41;;;;;;;81.15;67.05;;;3.20;99.90;;;;;;4951233;29;20260;-31
2021/01/09 07:28:15;;;;;;;76.38;63.65;;;3.10;99.90;;;;;;4950940;29;20246;-26
2021/01/09 07:30:45;;;;;;;67.35;56.28;;;3.20;99.90;;;;;;4950509;29;20251;-29
2021/01/09 07:33:16;;;;;;;61.67;55.25;;;3.20;99.90;;;;;;4951477;29;20288;-27
2021/01/09 07:35:47;;;;;;;71.32;60.80;;;3.10;99.90;;;;;;4942245;29;20205;-29
2021/01/09 07:38:19;;;;;;;80.60;69.15;;;3.10;99.90;;;;;;4951393;29;20251;-28
2021/01/09 07:40:55;;;;;;;74.70;64.95;;;3.10;99.90;;;;;;4950749;29;20223;-28
2021/01/09 07:43:40;;;;;;;70.90;61.45;;;3.00;99.90;;;;;;4950860;29;20197;-29
2021/01/09 07:46:27;;;;;;;73.00;63.03;;;2.90;99.90;;;;;;4947324;29;20216;-27
2021/01/09 07:48:58;;;;;;;85.15;64.60;;;2.90;99.90;;;;;;4951262;29;20670;-26
2021/01/09 07:51:50;;;;;;;71.72;64.22;;;2.90;99.90;;;;;;4950655;29;20202;-26
2021/01/09 07:54:47;;;;;;;69.80;62.25;;;3.00;99.90;;;;;;4950473;29;20237;-29
2021/01/09 07:57:24;;;;;;;76.03;62.30;;;2.90;99.90;;;;;;4917526;29;20209;-30
2021/01/09 08:00:12;;;;;;;70.45;62.42;;;2.90;99.90;;;;;;4943224;29;20236;-27
2021/01/09 08:02:44;;;;;;;72.05;61.83;;;2.80;99.90;;;;;;4950446;29;20236;-29
2021/01/09 08:05:17;;;;;;;67.07;58.30;;;2.80;99.90;;;;;;4954674;29;20224;-30
2021/01/09 08:07:48;;;;;;;67.95;55.78;;;2.80;99.90;;;;;;4939365;29;20273;-28
2021/01/09 08:10:24;;;;;;;59.88;52.30;;;2.80;99.90;;;;;;4954390;29;20709;-28
2021/01/09 08:12:57;;;;;;;58.70;52.35;;;2.80;99.90;;;;;;4947963;29;20197;-27
2021/01/09 08:15:30;;;;;;;55.22;49.15;;;2.70;99.90;;;;;;4953831;29;20620;-28
2021/01/09 08:18:03;;;;;;;55.28;47.80;;;2.70;99.90;;;;;;4954359;29;20209;-27
2021/01/09 08:20:34;;;;;;;53.40;46.55;;;2.70;99.90;;;;;;4954268;29;20653;-29
2021/01/09 08:23:05;;;;;;;61.50;54.85;;;2.60;99.90;;;;;;4954422;29;20201;-27
2021/01/09 08:25:38;;;;;;;64.45;57.50;;;2.60;99.90;;;;;;4949962;29;20249;-31
2021/01/09 08:28:09;;;;;;;75.95;59.90;;;2.70;99.90;;;;;;4954074;29;20567;-30
2021/01/09 08:30:41;;;;;;;68.60;53.95;;;2.80;99.90;;;;;;4953585;29;20201;-27
2021/01/09 08:33:13;;;;;;;118.65;56.88;;;2.70;99.90;;;;;;4953934;29;20611;-28
2021/01/09 08:35:48;;;;;;;145.23;64.53;;;2.70;99.90;;;;;;4954124;29;20193;-28
2021/01/09 08:38:19;;;;;;;122.10;62.70;;;2.70;99.90;;;;;;4954181;29;20205;-30
2021/01/09 08:40:56;;;;;;;116.18;49.08;;;2.70;99.90;;;;;;4953638;29;20221;-28
2021/01/09 08:43:27;;;;;;;75.20;41.95;;;2.70;99.90;;;;;;4954082;29;20586;-28
2021/01/09 08:45:58;;;;;;;60.28;42.72;;;2.70;99.90;;;;;;4953075;29;20253;-26
2021/01/09 08:48:30;;;;;;;85.70;43.47;;;2.70;99.90;;;;;;4953875;29;20275;-30
2021/01/09 08:51:05;;;;;;;86.18;42.92;;;2.80;99.90;;;;;;4953469;29;20198;-27
2021/01/09 08:53:48;;;;;;;111.22;39.92;;;2.90;99.90;;;;;;4954004;29;20229;-28
2021/01/09 08:56:19;;;;;;;99.68;34.33;;;3.00;99.90;;;;;;4953623;29;20202;-28
2021/01/09 08:58:50;;;;;;;74.70;29.33;;;3.00;99.90;;;;;;4953628;29;20205;-32
2021/01/09 09:01:26;;;;;;;103.93;31.30;;;3.00;99.90;;;;;;4953315;29;20232;-27
2021/01/09 09:04:01;;;;;;;88.90;30.50;;;3.00;99.90;;;;;;4953718;29;20231;-29
2021/01/09 09:06:36;;;;;;;84.10;22.73;;;3.10;99.90;;;;;;4953508;29;20199;-29
2021/01/09 09:09:06;;;;;;;64.15;18.65;;;3.20;99.90;;;;;;4954038;29;20704;-28
2021/01/09 09:11:37;;;;;;;46.20;15.15;;;3.20;99.90;;;;;;4953110;28;20200;-35
2021/01/09 09:14:08;;;;;;;42.30;15.05;;;3.30;99.90;;;;;;4953561;29;20657;-31
2021/01/09 09:16:41;;;;;;;89.28;19.50;;;3.30;99.90;;;;;;4944994;29;20202;-28
2021/01/09 09:19:15;;;;;;;121.32;20.63;;;3.30;99.90;;;;;;4953598;29;20233;-32
2021/01/09 09:21:47;;;;;;;41.15;11.38;;;3.30;99.90;;;;;;4953114;29;20201;-27
2021/01/09 09:24:18;;;;;;;40.45;12.57;;;3.30;99.90;;;;;;4953359;29;20280;-28
2021/01/09 09:26:48;;;;;;;42.50;10.55;;;3.40;99.90;;;;;;4952938;29;20252;-28
2021/01/09 09:29:18;;;;;;;57.05;11.32;;;3.40;99.90;;;;;;4952593;29;20567;-29
2021/01/09 09:31:49;;;;;;;54.63;12.07;;;3.50;99.90;;;;;;4953088;29;20201;-28
2021/01/09 09:34:19;;;;;;;52.15;10.40;;;3.50;99.90;;;;;;4952625;29;20256;-33
2021/01/09 09:37:01;;;;;;;100.55;15.55;;;3.60;99.90;;;;;;4953051;29;20213;-30
2021/01/09 09:39:35;;;;;;;89.22;11.55;;;3.50;99.90;;;;;;4953307;29;20217;-27
2021/01/09 09:42:06;;;;;;;42.22;9.43;;;3.50;99.90;;;;;;4933948;29;20193;-28
2021/01/09 09:44:40;;;;;;;92.38;12.57;;;3.60;99.90;;;;;;4951793;29;20201;-30
2021/01/09 09:47:12;;;;;;;16.30;6.13;;;3.60;99.90;;;;;;4952651;29;20228;-28
2021/01/09 09:49:47;;;;;;;28.05;6.57;;;3.60;99.90;;;;;;4952854;29;20211;-29
2021/01/09 09:52:17;;;;;;;48.97;8.60;;;3.60;99.90;;;;;;4953547;29;20329;-28
2021/01/09 09:54:48;;;;;;;30.90;7.80;;;3.60;99.90;;;;;;4952610;29;20600;-29
2021/01/09 09:57:22;;;;;;;5.82;4.90;;;3.60;99.90;;;;;;4952321;29;20209;-27
2021/01/09 10:00:05;;;;;;;42.38;7.43;;;3.70;99.90;;;;;;4951829;29;20296;-29
2021/01/09 10:02:37;;;;;;;43.72;7.35;;;3.70;99.90;;;;;;4952448;29;20197;-29
2021/01/09 10:05:16;;;;;;;33.47;8.43;;;3.70;99.90;;;;;;4951925;29;20305;-31
2021/01/09 10:07:46;;;;;;;41.35;8.45;;;3.80;99.90;;;;;;4952581;29;20269;-32
2021/01/09 10:10:18;;;;;;;24.67;6.75;;;3.80;99.90;;;;;;4951803;29;20228;-27
2021/01/09 10:12:56;;;;;;;30.15;7.43;;;3.80;99.90;;;;;;4952436;29;20244;-28
2021/01/09 10:15:27;;;;;;;48.08;8.88;;;3.80;99.90;;;;;;4951014;29;20701;-28
2021/01/09 10:18:00;;;;;;;31.17;7.60;;;3.80;99.90;;;;;;4952173;29;20602;-28
2021/01/09 10:20:31;;;;;;;35.28;6.90;;;3.80;99.90;;;;;;4952261;29;20833;-27
2021/01/09 10:23:01;;;;;;;22.08;6.65;;;3.70;99.90;;;;;;4952266;29;20198;-29
2021/01/09 10:25:31;;;;;;;13.80;5.93;;;3.70;99.90;;;;;;4933837;29;20209;-32
2021/01/09 10:28:01;;;;;;;13.10;5.78;;;3.60;99.90;;;;;;4951813;29;20202;-26
2021/01/09 10:30:31;;;;;;;12.73;5.47;;;3.60;99.90;;;;;;4949954;29;20252;-28
2021/01/09 10:33:03;;;;;;;10.55;5.10;;;3.60;99.90;;;;;;4952138;29;20201;-28
2021/01/09 10:35:33;;;;;;;18.60;5.72;;;3.50;99.90;;;;;;4951437;29;20284;-29
2021/01/09 10:38:03;;;;;;;26.23;5.82;;;3.50;99.90;;;;;;4951639;29;20201;-28
2021/01/09 10:40:33;;;;;;;19.60;5.00;;;3.60;99.90;;;;;;4951533;29;20280;-28
2021/01/09 10:43:03;;;;;;;11.57;5.07;;;3.60;99.90;;;;;;4951677;29;20206;-28
2021/01/09 10:45:33;;;;;;;14.93;4.28;;;3.50;99.90;;;;;;4951062;29;20688;-29
2021/01/09 10:48:04;;;;;;;8.85;3.75;;;3.50;99.90;;;;;;4952208;29;20284;-32
2021/01/09 10:50:34;;;;;;;12.07;3.55;;;3.60;99.90;;;;;;4952085;29;20193;-29
2021/01/09 10:53:05;;;;;;;18.10;4.47;;;3.70;99.90;;;;;;4951781;29;20229;-32
2021/01/09 10:55:40;;;;;;;21.30;4.43;;;3.70;99.90;;;;;;4951214;29;20197;-28
2021/01/09 10:58:10;;;;;;;15.85;4.82;;;3.80;99.90;;;;;;4951541;29;20193;-27
2021/01/09 11:00:40;;;;;;;39.72;6.28;;;3.90;99.90;;;;;;4950362;29;20382;-30
2021/01/09 11:03:11;;;;;;;26.83;6.03;;;3.90;99.90;;;;;;4951353;29;20197;-31
2021/01/09 11:05:44;;;;;;;15.43;4.43;;;4.00;99.90;;;;;;4951538;29;20542;-31
2021/01/09 11:08:14;;;;;;;36.85;6.30;;;4.00;99.90;;;;;;4951660;29;20205;-31
2021/01/09 11:10:44;;;;;;;49.17;7.03;;;4.00;99.90;;;;;;4951001;29;20308;-29
2021/01/09 11:13:14;;;;;;;13.27;4.70;;;4.10;99.90;;;;;;4933678;29;20210;-28
2021/01/09 11:15:47;;;;;;;38.50;6.57;;;4.20;99.90;;;;;;4935033;29;20203;-30
2021/01/09 11:18:19;;;;;;;27.20;5.68;;;4.20;99.90;;;;;;4951308;29;20606;-31
2021/01/09 11:20:50;;;;;;;76.45;9.48;;;4.20;99.90;;;;;;4951055;29;20571;-29
2021/01/09 11:23:21;;;;;;;32.30;6.22;;;4.10;99.90;;;;;;4951562;29;20780;-28
2021/01/09 11:25:51;;;;;;;61.90;8.68;;;4.10;99.90;;;;;;4936229;29;20297;-27
2021/01/09 11:28:21;;;;;;;51.97;7.80;;;4.20;99.90;;;;;;4950767;29;20728;-27
2021/01/09 11:30:51;;;;;;;32.38;6.82;;;4.30;99.90;;;;;;4950400;29;20637;-28
2021/01/09 11:33:22;;;;;;;17.40;5.07;;;4.30;99.90;;;;;;4951425;29;20665;-31
2021/01/09 11:35:52;;;;;;;13.05;5.07;;;4.30;99.90;;;;;;4951219;28;20669;-30
2021/01/09 11:38:24;;;;;;;21.92;5.97;;;4.30;99.90;;;;;;4955248;29;20364;-30
2021/01/09 11:40:54;;;;;;;19.48;5.68;;;4.30;99.90;;;;;;4954609;29;20209;-32
2021/01/09 11:43:24;;;;;;;17.77;6.40;;;4.40;99.90;;;;;;4954944;29;20205;-28
2021/01/09 11:45:54;;;;;;;6.75;5.95;;;4.40;99.90;;;;;;4954609;29;20201;-32
2021/01/09 11:48:27;;;;;;;7.15;5.50;;;4.40;99.90;;;;;;4955339;29;20316;-30
2021/01/09 11:50:57;;;;;;;9.80;6.53;;;4.50;99.90;;;;;;4955202;29;20200;-29
2021/01/09 11:53:27;;;;;;;7.40;5.50;;;4.60;99.90;;;;;;4954946;29;20348;-30
2021/01/09 11:55:57;;;;;;;14.07;5.95;;;4.60;99.90;;;;;;4954987;29;20198;-32
2021/01/09 11:58:28;;;;;;;9.20;6.72;;;4.60;99.90;;;;;;4954753;29;20816;-29
2021/01/09 12:00:58;;;;;;;10.63;6.22;;;4.70;99.90;;;;;;4954027;29;20681;-29
2021/01/09 12:03:29;;;;;;;11.27;6.53;;;4.60;99.90;;;;;;4955330;29;20198;-32
2021/01/09 12:05:59;;;;;;;11.73;7.38;;;4.70;99.90;;;;;;4954499;29;20239;-30
2021/01/09 12:08:29;;;;;;;13.45;6.90;;;4.60;99.90;;;;;;4954467;29;20202;-31
2021/01/09 12:10:59;;;;;;;9.50;6.50;;;4.60;99.90;;;;;;4954404;29;20204;-31
2021/01/09 12:13:32;;;;;;;8.32;6.28;;;4.60;99.90;;;;;;4954516;29;20205;-30
2021/01/09 12:16:02;;;;;;;19.27;7.28;;;4.60;99.90;;;;;;4954144;29;20805;-33
2021/01/09 12:18:34;;;;;;;31.08;10.20;;;4.70;99.90;;;;;;4954697;29;20194;-28
2021/01/09 12:21:04;;;;;;;16.17;7.35;;;4.70;99.90;;;;;;4954387;29;20634;-30
2021/01/09 12:23:34;;;;;;;7.97;6.05;;;4.60;99.90;;;;;;4954339;29;20676;-27
2021/01/09 12:26:04;;;;;;;15.80;7.43;;;4.60;99.90;;;;;;4954240;29;20205;-29
2021/01/09 12:28:34;;;;;;;29.75;7.55;;;4.60;99.90;;;;;;4954879;29;20209;-34
2021/01/09 12:31:04;;;;;;;19.40;8.38;;;4.60;99.90;;;;;;4953880;29;20232;-33
2021/01/09 12:33:53;;;;;;;11.40;5.65;;;4.60;99.90;;;;;;4937636;29;20202;-31
2021/01/09 12:36:24;;;;;;;25.48;8.30;;;4.60;99.90;;;;;;4953841;29;20197;-28
2021/01/09 12:38:54;;;;;;;12.60;6.68;;;4.60;99.90;;;;;;4954135;29;20596;-28
2021/01/09 12:41:33;;;;;;;11.38;5.65;;;4.50;99.90;;;;;;4953065;29;20275;-27
2021/01/09 12:44:03;;;;;;;8.43;6.10;;;4.50;99.90;;;;;;4952170;29;20248;-31
2021/01/09 12:46:41;;;;;;;6.53;5.40;;;4.50;99.90;;;;;;4953158;28;20232;-30
2021/01/09 12:49:14;;;;;;;8.25;5.63;;;4.60;99.90;;;;;;4954078;29;20193;-30
2021/01/09 12:51:45;;;;;;;7.90;5.60;;;4.50;99.90;;;;;;4953918;29;20602;-29
2021/01/09 12:54:15;;;;;;;8.35;5.68;;;4.60;99.90;;;;;;4953465;29;20639;-29
2021/01/09 12:56:45;;;;;;;11.27;6.57;;;4.50;99.90;;;;;;4953557;29;20197;-29
2021/01/09 12:59:16;;;;;;;7.88;5.68;;;4.50;99.90;;;;;;4935902;29;20198;-27
2021/01/09 13:01:47;;;;;;;8.45;5.30;;;4.40;99.90;;;;;;4953700;29;20277;-29
2021/01/09 13:04:20;;;;;;;7.53;5.65;;;4.50;99.90;;;;;;4953933;29;20252;-29